Time;durP1;ratioP1;P1;durP2;ratioP2;P2;SDS_P1;SDS_P2;PMS_P1;PMS_P2;Temp;Humidity;BMP_temperature;BMP_pressure;BME280_temperature;BME280_humidity;BME280_pressure;Samples;Min_cycle;Max_cycle;Signal;HPM_P1;HPM_P2
2023/05/15 00:02:07;;;;;;;24.42;19.60;;;13.60;99.90;;;;;;6216466;23;20004;-71
2023/05/15 00:04:32;;;;;;;19.08;17.17;;;13.50;99.90;;;;;;6216291;23;20011;-71
2023/05/15 00:06:58;;;;;;;22.75;18.65;;;13.50;99.90;;;;;;6242724;23;20004;-71
2023/05/15 00:09:24;;;;;;;21.42;17.80;;;13.50;99.90;;;;;;6242881;23;20046;-71
2023/05/15 00:11:50;;;;;;;20.35;18.05;;;13.50;99.90;;;;;;6243221;23;20011;-71
2023/05/15 00:14:15;;;;;;;21.30;17.92;;;13.50;99.90;;;;;;6242816;23;20000;-71
2023/05/15 00:16:41;;;;;;;19.80;17.65;;;13.50;99.90;;;;;;6216286;23;20014;-71
2023/05/15 00:19:07;;;;;;;20.60;16.95;;;13.50;99.90;;;;;;6242904;23;20142;-71
2023/05/15 00:21:32;;;;;;;24.25;19.55;;;13.40;99.90;;;;;;6242657;23;19996;-71
2023/05/15 00:23:58;;;;;;;22.30;18.38;;;13.40;99.90;;;;;;6242695;23;20333;-71
2023/05/15 00:26:23;;;;;;;19.85;17.77;;;13.30;99.90;;;;;;6216148;23;20041;-71
2023/05/15 00:28:49;;;;;;;20.38;18.33;;;13.40;99.90;;;;;;6243162;23;20000;-71
2023/05/15 00:31:15;;;;;;;21.83;17.48;;;13.40;99.90;;;;;;6242853;23;20032;-71
2023/05/15 00:33:41;;;;;;;23.15;19.65;;;13.30;99.90;;;;;;6243004;23;20057;-71
2023/05/15 00:36:07;;;;;;;19.88;17.77;;;13.30;99.90;;;;;;6215607;23;20028;-71
2023/05/15 00:38:33;;;;;;;21.77;19.52;;;13.30;99.90;;;;;;6242919;23;20083;-71
2023/05/15 00:41:00;;;;;;;22.00;17.77;;;13.30;99.90;;;;;;6215963;23;20008;-71
2023/05/15 00:43:27;;;;;;;19.75;17.75;;;13.30;99.90;;;;;;6242713;23;20004;-71
2023/05/15 00:45:54;;;;;;;22.05;17.88;;;13.30;99.90;;;;;;6242257;23;20138;-71
2023/05/15 00:48:21;;;;;;;21.58;18.92;;;13.30;99.90;;;;;;6242580;23;19997;-71
2023/05/15 00:50:50;;;;;;;20.30;18.23;;;13.30;99.90;;;;;;6215340;23;20307;-71
2023/05/15 00:53:16;;;;;;;23.10;17.35;;;13.20;99.90;;;;;;6242438;23;20440;-71
2023/05/15 00:55:45;;;;;;;20.27;18.08;;;13.20;99.90;;;;;;6242822;23;20000;-71
2023/05/15 00:58:13;;;;;;;21.17;17.00;;;13.20;99.90;;;;;;6242340;23;20035;-71
2023/05/15 01:00:42;;;;;;;20.48;18.25;;;13.20;99.90;;;;;;6215760;23;19997;-71
2023/05/15 01:03:08;;;;;;;19.77;16.55;;;13.10;99.90;;;;;;6242647;23;20469;-71
2023/05/15 01:05:34;;;;;;;23.35;18.35;;;13.20;99.90;;;;;;6241891;23;20138;-71
2023/05/15 01:08:06;;;;;;;22.20;18.65;;;13.10;99.90;;;;;;6242651;23;20028;-70
2023/05/15 01:10:34;;;;;;;24.75;19.00;;;13.00;99.90;;;;;;6242622;23;19997;-71
2023/05/15 01:13:01;;;;;;;20.63;18.58;;;13.00;99.90;;;;;;6215664;23;20009;-71
2023/05/15 01:15:27;;;;;;;25.70;18.92;;;13.00;99.90;;;;;;6242350;23;20023;-71
2023/05/15 01:17:52;;;;;;;21.00;17.30;;;12.90;99.90;;;;;;6242339;23;20445;-71
2023/05/15 01:20:21;;;;;;;21.42;16.48;;;12.90;99.90;;;;;;6241723;23;20003;-71
2023/05/15 01:23:06;;;;;;;28.02;18.20;;;12.90;99.90;;;;;;6242407;23;20000;-71
2023/05/15 01:26:13;;;;;;;19.48;16.63;;;12.80;99.90;;;;;;6242351;23;20375;-71
2023/05/15 01:28:44;;;;;;;22.92;18.60;;;12.80;99.90;;;;;;6240299;23;20390;-71
2023/05/15 01:31:15;;;;;;;18.98;16.95;;;12.80;99.90;;;;;;6215523;23;20031;-71
2023/05/15 01:33:45;;;;;;;23.10;19.17;;;12.80;99.90;;;;;;6241814;23;20027;-70
2023/05/15 01:36:13;;;;;;;23.45;16.98;;;12.80;99.90;;;;;;6242327;23;20004;-71
2023/05/15 01:38:51;;;;;;;20.83;18.67;;;12.70;99.90;;;;;;6242312;23;20031;-71
2023/05/15 01:41:22;;;;;;;19.20;16.73;;;12.70;99.90;;;;;;6242151;23;19997;-72
2023/05/15 01:43:55;;;;;;;18.58;16.65;;;12.70;99.90;;;;;;6242673;23;20270;-71
2023/05/15 01:46:22;;;;;;;26.67;17.95;;;12.70;99.90;;;;;;6242160;23;20368;-71
2023/05/15 01:48:50;;;;;;;21.77;17.27;;;12.70;99.90;;;;;;6241627;23;20079;-71
2023/05/15 01:51:18;;;;;;;19.83;17.75;;;12.70;99.90;;;;;;6242243;23;20004;-71
2023/05/15 01:53:45;;;;;;;22.27;17.40;;;12.60;99.90;;;;;;6215194;23;20016;-71
2023/05/15 01:56:12;;;;;;;21.58;17.10;;;12.70;99.90;;;;;;6241851;23;20007;-71
2023/05/15 01:58:39;;;;;;;18.73;16.83;;;12.60;99.90;;;;;;6214747;23;20011;-71
2023/05/15 02:01:05;;;;;;;21.45;18.77;;;12.60;99.90;;;;;;6242071;23;20020;-71
2023/05/15 02:03:35;;;;;;;18.35;16.48;;;12.60;99.90;;;;;;6214543;23;20061;-71
2023/05/15 02:06:03;;;;;;;19.67;17.55;;;12.60;99.90;;;;;;6242288;23;20000;-71
2023/05/15 02:08:30;;;;;;;23.58;18.83;;;12.60;99.90;;;;;;6241794;23;20008;-72
2023/05/15 02:10:58;;;;;;;23.15;19.35;;;12.60;99.90;;;;;;6241997;23;20299;-71
2023/05/15 02:13:25;;;;;;;21.60;18.77;;;12.60;99.90;;;;;;6241767;23;20004;-71
2023/05/15 02:15:51;;;;;;;22.23;18.08;;;12.60;99.90;;;;;;6241939;23;20000;-71
2023/05/15 02:18:16;;;;;;;22.42;19.48;;;12.60;99.90;;;;;;6241178;23;20087;-71
2023/05/15 02:20:42;;;;;;;27.58;20.50;;;12.60;99.90;;;;;;6242362;23;19996;-71
2023/05/15 02:23:08;;;;;;;21.27;18.95;;;12.60;99.90;;;;;;6241842;23;20004;-71
2023/05/15 02:25:47;;;;;;;24.52;18.98;;;12.60;99.90;;;;;;6241513;23;20438;-71
2023/05/15 02:28:27;;;;;;;25.50;19.20;;;12.60;99.90;;;;;;6241477;23;20026;-71
2023/05/15 02:31:04;;;;;;;25.58;20.25;;;12.60;99.90;;;;;;6241212;23;19992;-71
2023/05/15 02:33:44;;;;;;;28.42;21.25;;;12.50;99.90;;;;;;6241610;23;20000;-71
2023/05/15 02:36:17;;;;;;;25.00;19.92;;;12.50;99.90;;;;;;6214554;23;20015;-71
2023/05/15 02:38:48;;;;;;;24.23;20.85;;;12.50;99.90;;;;;;6241843;23;20003;-71
2023/05/15 02:41:15;;;;;;;22.25;19.83;;;12.50;99.90;;;;;;6241211;23;19992;-71
2023/05/15 02:43:43;;;;;;;24.77;20.58;;;12.50;99.90;;;;;;6241714;23;20008;-70
2023/05/15 02:46:09;;;;;;;23.20;20.17;;;12.40;99.90;;;;;;6241146;23;20276;-70
2023/05/15 02:48:38;;;;;;;25.70;21.88;;;12.40;99.90;;;;;;6241372;23;20007;-71
2023/05/15 02:51:05;;;;;;;24.73;21.52;;;12.40;99.90;;;;;;6241687;23;20035;-71
2023/05/15 02:53:32;;;;;;;25.42;21.83;;;12.40;99.90;;;;;;6241413;23;20015;-70
2023/05/15 02:55:58;;;;;;;26.17;23.27;;;12.40;99.90;;;;;;6241328;23;20024;-70
2023/05/15 02:58:23;;;;;;;25.60;22.30;;;12.30;99.90;;;;;;6240038;23;20050;-70
2023/05/15 03:00:49;;;;;;;31.23;23.75;;;12.30;99.90;;;;;;6238411;23;20027;-71
2023/05/15 03:03:14;;;;;;;32.78;26.13;;;12.20;99.90;;;;;;6238820;23;20039;-71
2023/05/15 03:05:40;;;;;;;31.60;26.33;;;12.20;99.90;;;;;;6239191;23;20074;-72
2023/05/15 03:08:06;;;;;;;29.67;23.55;;;12.10;99.90;;;;;;6212221;23;20004;-70
2023/05/15 03:10:31;;;;;;;28.80;23.55;;;12.10;99.90;;;;;;6238992;23;20012;-71
2023/05/15 03:12:57;;;;;;;30.08;23.67;;;12.10;99.90;;;;;;6238928;23;20334;-71
2023/05/15 03:15:22;;;;;;;32.58;26.88;;;12.00;99.90;;;;;;6212852;23;20422;-70
2023/05/15 03:17:48;;;;;;;32.05;25.70;;;12.00;99.90;;;;;;6241692;23;20372;-70
2023/05/15 03:20:14;;;;;;;39.20;27.63;;;12.00;99.90;;;;;;6241135;23;20418;-71
2023/05/15 03:22:40;;;;;;;43.47;26.77;;;12.00;99.90;;;;;;6241711;23;20004;-71
2023/05/15 03:25:07;;;;;;;47.42;29.63;;;12.00;99.90;;;;;;6214233;23;20012;-71
2023/05/15 03:27:32;;;;;;;39.47;29.77;;;12.00;99.90;;;;;;6241481;23;20000;-70
2023/05/15 03:29:58;;;;;;;51.47;29.63;;;12.10;99.90;;;;;;6213788;23;20007;-70
2023/05/15 03:32:23;;;;;;;50.50;31.75;;;12.10;99.90;;;;;;6241176;23;20008;-71
2023/05/15 03:34:49;;;;;;;52.38;32.17;;;12.20;99.90;;;;;;6214464;23;20008;-71
2023/05/15 03:37:14;;;;;;;45.10;29.88;;;12.20;99.90;;;;;;6241283;23;20006;-71
2023/05/15 03:39:40;;;;;;;41.97;29.15;;;12.30;99.90;;;;;;6241567;23;20075;-71
2023/05/15 03:42:06;;;;;;;47.17;31.13;;;12.30;99.90;;;;;;6241234;23;20002;-70
2023/05/15 03:44:32;;;;;;;42.85;27.92;;;12.30;99.90;;;;;;6240790;23;20272;-71
2023/05/15 03:46:57;;;;;;;40.78;29.08;;;12.40;99.90;;;;;;6241512;23;20004;-70
2023/05/15 03:49:23;;;;;;;44.60;30.45;;;12.40;99.90;;;;;;6241224;23;20074;-70
2023/05/15 03:51:48;;;;;;;39.75;28.80;;;12.50;99.90;;;;;;6241412;23;20000;-70
2023/05/15 03:54:14;;;;;;;49.72;30.85;;;12.40;99.90;;;;;;6240920;23;20014;-70
2023/05/15 03:56:39;;;;;;;37.55;27.80;;;12.50;99.90;;;;;;6241224;23;20381;-70
2023/05/15 03:59:05;;;;;;;42.75;30.02;;;12.60;99.90;;;;;;6240612;23;20038;-71
2023/05/15 04:01:31;;;;;;;39.15;27.02;;;12.60;99.90;;;;;;6241281;23;20012;-71
2023/05/15 04:03:56;;;;;;;39.15;27.85;;;12.60;99.90;;;;;;6241322;23;20012;-71
2023/05/15 04:06:22;;;;;;;41.20;29.15;;;12.60;99.90;;;;;;6241297;23;20000;-71
2023/05/15 04:08:48;;;;;;;40.58;29.02;;;12.60;99.90;;;;;;6241284;23;19996;-70
2023/05/15 04:11:14;;;;;;;41.92;30.65;;;12.60;99.90;;;;;;6240869;23;20499;-70
2023/05/15 04:13:40;;;;;;;37.72;27.65;;;12.50;99.90;;;;;;6240254;23;20015;-70
2023/05/15 04:16:06;;;;;;;40.05;28.80;;;12.50;99.90;;;;;;6241016;23;20303;-71
2023/05/15 04:18:32;;;;;;;43.58;29.13;;;12.50;99.90;;;;;;6214166;23;20330;-70
2023/05/15 04:20:57;;;;;;;44.20;28.77;;;12.50;99.90;;;;;;6241674;23;19996;-70
2023/05/15 04:23:23;;;;;;;41.78;30.25;;;12.40;99.90;;;;;;6242682;23;20004;-70
2023/05/15 04:25:48;;;;;;;39.65;29.92;;;12.40;99.90;;;;;;6242778;23;20378;-70
2023/05/15 04:28:14;;;;;;;37.60;27.88;;;12.40;99.90;;;;;;6242040;23;20000;-70
2023/05/15 04:30:40;;;;;;;39.15;28.98;;;12.40;99.90;;;;;;6242585;23;20050;-70
2023/05/15 04:33:06;;;;;;;42.40;29.67;;;12.40;99.90;;;;;;6242815;23;20000;-70
2023/05/15 04:35:32;;;;;;;34.80;27.08;;;12.40;99.90;;;;;;6242622;23;20418;-70
2023/05/15 04:37:57;;;;;;;43.83;30.05;;;12.40;99.90;;;;;;6242872;23;19996;-70
2023/05/15 04:40:23;;;;;;;35.13;27.45;;;12.40;99.90;;;;;;6215468;23;20054;-70
2023/05/15 04:42:48;;;;;;;37.55;27.60;;;12.50;99.90;;;;;;6242161;23;20438;-71
2023/05/15 04:45:14;;;;;;;40.50;29.67;;;12.50;99.90;;;;;;6242242;23;20000;-71
2023/05/15 04:47:40;;;;;;;37.50;28.02;;;12.50;99.90;;;;;;6242817;23;20022;-70
2023/05/15 04:50:06;;;;;;;35.38;28.27;;;12.50;99.90;;;;;;6242475;23;20004;-70
2023/05/15 04:52:32;;;;;;;39.35;28.52;;;12.60;99.90;;;;;;6242832;23;20004;-70
2023/05/15 04:54:57;;;;;;;32.92;27.42;;;12.60;99.90;;;;;;6242450;23;20141;-70
2023/05/15 04:57:24;;;;;;;40.28;28.45;;;12.60;99.90;;;;;;6242106;23;20042;-70
2023/05/15 04:59:50;;;;;;;34.58;29.10;;;12.60;99.90;;;;;;6242687;23;20200;-71
2023/05/15 05:02:18;;;;;;;35.67;28.55;;;12.70;99.90;;;;;;6215383;23;20421;-71
2023/05/15 05:04:44;;;;;;;39.72;28.75;;;12.70;99.90;;;;;;6242560;23;20004;-70
2023/05/15 05:07:10;;;;;;;42.65;30.33;;;12.70;99.90;;;;;;6242807;23;20011;-71
2023/05/15 05:09:38;;;;;;;34.00;26.30;;;12.70;99.90;;;;;;6215719;23;20039;-71
2023/05/15 05:12:05;;;;;;;32.08;26.92;;;12.70;99.90;;;;;;6242188;23;20008;-71
2023/05/15 05:14:30;;;;;;;35.28;26.70;;;12.70;99.90;;;;;;6242493;23;20008;-71
2023/05/15 05:16:56;;;;;;;28.77;23.83;;;12.70;99.90;;;;;;6242321;23;20004;-71
2023/05/15 05:19:21;;;;;;;35.83;26.67;;;12.60;99.90;;;;;;6242000;23;20075;-71
2023/05/15 05:21:47;;;;;;;33.47;26.27;;;12.70;99.90;;;;;;6215425;23;20028;-71
2023/05/15 05:24:12;;;;;;;38.42;27.25;;;12.70;99.90;;;;;;6241572;23;20035;-71
2023/05/15 05:26:38;;;;;;;30.75;26.05;;;12.70;99.90;;;;;;6241501;23;20004;-71
2023/05/15 05:29:03;;;;;;;33.22;25.45;;;12.90;99.90;;;;;;6242333;23;20008;-71
2023/05/15 05:31:29;;;;;;;32.13;24.55;;;12.90;99.90;;;;;;6242014;23;20004;-71
2023/05/15 05:33:55;;;;;;;30.20;25.80;;;12.90;99.90;;;;;;6242196;23;20012;-71
2023/05/15 05:36:20;;;;;;;28.95;25.63;;;12.80;99.90;;;;;;6241799;23;20000;-70
2023/05/15 05:38:46;;;;;;;34.13;26.45;;;12.80;99.90;;;;;;6241559;23;19996;-71
2023/05/15 05:41:11;;;;;;;28.73;24.02;;;12.80;99.90;;;;;;6238908;23;19996;-71
2023/05/15 05:43:37;;;;;;;29.45;25.02;;;12.80;99.90;;;;;;6242149;23;20008;-71
2023/05/15 05:46:02;;;;;;;27.85;24.05;;;12.80;99.90;;;;;;6242031;23;20303;-71
2023/05/15 05:48:28;;;;;;;28.35;24.80;;;12.80;99.90;;;;;;6241818;23;20004;-70
2023/05/15 05:50:54;;;;;;;26.63;23.60;;;12.80;99.90;;;;;;6214846;23;20332;-71
2023/05/15 05:53:19;;;;;;;30.45;23.25;;;12.80;99.90;;;;;;6241606;23;20047;-70
2023/05/15 05:55:46;;;;;;;28.30;22.58;;;12.90;99.90;;;;;;6241303;23;20038;-71
2023/05/15 05:58:12;;;;;;;27.17;22.08;;;13.00;99.90;;;;;;6241798;23;20083;-71
2023/05/15 06:00:37;;;;;;;26.67;22.83;;;13.10;99.90;;;;;;6241910;23;20374;-71
2023/05/15 06:03:03;;;;;;;30.80;25.08;;;13.10;99.90;;;;;;6241761;23;20004;-71
2023/05/15 06:05:28;;;;;;;33.38;24.58;;;13.10;99.90;;;;;;6241601;23;20000;-75
2023/05/15 06:07:55;;;;;;;30.08;24.73;;;13.10;99.90;;;;;;6241388;23;20263;-76
2023/05/15 06:10:21;;;;;;;31.67;24.95;;;13.20;99.90;;;;;;6240770;23;20000;-76
2023/05/15 06:12:47;;;;;;;29.63;25.27;;;13.20;99.90;;;;;;6241318;23;20031;-76
2023/05/15 06:15:15;;;;;;;27.15;24.27;;;13.20;99.90;;;;;;6241551;23;20000;-75
2023/05/15 06:17:40;;;;;;;27.65;22.67;;;13.20;99.90;;;;;;6241393;23;20138;-75
2023/05/15 06:20:07;;;;;;;28.70;24.90;;;13.20;99.90;;;;;;6241347;23;20311;-76
2023/05/15 06:22:33;;;;;;;26.13;23.33;;;13.10;99.90;;;;;;6241207;23;20008;-76
2023/05/15 06:25:00;;;;;;;28.02;24.90;;;13.10;99.90;;;;;;6240640;23;20059;-76
2023/05/15 06:27:26;;;;;;;31.38;23.40;;;13.10;99.90;;;;;;6241033;23;20010;-76
2023/05/15 06:29:52;;;;;;;28.25;25.40;;;13.10;99.90;;;;;;6240960;23;20075;-76
2023/05/15 06:32:17;;;;;;;28.05;25.02;;;13.10;99.90;;;;;;6240702;23;20457;-76
2023/05/15 06:34:43;;;;;;;29.52;25.92;;;13.20;99.90;;;;;;6240895;23;20071;-76
2023/05/15 06:37:08;;;;;;;29.15;26.02;;;13.20;99.90;;;;;;6240364;23;20002;-76
2023/05/15 06:39:34;;;;;;;27.23;23.52;;;13.30;99.90;;;;;;6240309;23;20422;-75
2023/05/15 06:42:00;;;;;;;29.73;25.58;;;13.40;99.90;;;;;;6241164;23;20023;-75
2023/05/15 06:44:26;;;;;;;28.00;24.98;;;13.40;99.90;;;;;;6213744;23;20342;-75
2023/05/15 06:46:52;;;;;;;29.38;24.40;;;13.50;99.90;;;;;;6213999;23;20337;-75
2023/05/15 06:49:17;;;;;;;26.85;24.15;;;13.50;99.90;;;;;;6240731;23;20032;-75
2023/05/15 06:51:43;;;;;;;28.50;25.45;;;13.60;99.90;;;;;;6240572;23;20005;-76
2023/05/15 06:54:08;;;;;;;27.80;23.52;;;13.70;99.90;;;;;;6214025;23;20762;-76
2023/05/15 06:56:34;;;;;;;27.92;25.13;;;13.80;99.90;;;;;;6213913;23;20012;-75
2023/05/15 06:59:00;;;;;;;25.63;22.90;;;13.80;99.90;;;;;;6211013;23;20418;-74
2023/05/15 07:01:25;;;;;;;27.98;24.42;;;13.80;99.90;;;;;;6236206;23;20004;-75
2023/05/15 07:03:51;;;;;;;28.92;25.85;;;13.90;99.90;;;;;;6240157;23;20004;-75
2023/05/15 07:06:16;;;;;;;26.35;23.35;;;13.90;99.90;;;;;;6239189;23;20011;-75
2023/05/15 07:08:42;;;;;;;27.80;23.95;;;13.90;99.90;;;;;;6239801;23;20069;-76
2023/05/15 07:11:07;;;;;;;24.75;22.33;;;14.00;99.90;;;;;;6239310;23;20087;-76
2023/05/15 07:13:34;;;;;;;25.75;21.92;;;14.00;99.90;;;;;;6240147;23;20007;-75
2023/05/15 07:15:59;;;;;;;26.88;23.08;;;14.00;99.90;;;;;;6240624;23;20083;-75
2023/05/15 07:18:25;;;;;;;28.23;23.88;;;14.10;99.90;;;;;;6240319;23;20062;-75
2023/05/15 07:20:50;;;;;;;24.60;22.23;;;14.20;99.90;;;;;;6212070;23;20000;-76
2023/05/15 07:23:16;;;;;;;29.08;23.67;;;14.30;99.90;;;;;;6240564;23;20397;-75
2023/05/15 07:25:41;;;;;;;26.25;23.63;;;14.40;99.90;;;;;;6240381;23;20012;-75
2023/05/15 07:28:07;;;;;;;25.50;22.67;;;14.50;99.90;;;;;;6239857;23;20065;-75
2023/05/15 07:30:33;;;;;;;24.35;21.65;;;14.60;99.90;;;;;;6239661;23;20083;-75
2023/05/15 07:32:58;;;;;;;24.92;22.42;;;14.70;99.90;;;;;;6240549;23;20440;-75
2023/05/15 07:35:24;;;;;;;24.55;22.05;;;14.80;99.90;;;;;;6240579;23;20445;-75
2023/05/15 07:37:50;;;;;;;21.55;19.52;;;15.00;99.90;;;;;;6241065;23;20006;-75
2023/05/15 07:40:15;;;;;;;22.45;20.13;;;15.20;99.90;;;;;;6242061;23;20043;-76
2023/05/15 07:42:43;;;;;;;22.58;20.38;;;15.20;99.90;;;;;;6212607;23;20008;-76
2023/05/15 07:45:09;;;;;;;23.00;20.70;;;15.20;99.90;;;;;;6240621;23;20487;-75
2023/05/15 07:47:35;;;;;;;23.52;21.27;;;15.30;99.90;;;;;;6213156;23;20012;-75
2023/05/15 07:50:00;;;;;;;21.23;19.02;;;15.30;99.90;;;;;;6239591;23;20126;-75
2023/05/15 07:52:26;;;;;;;25.02;22.40;;;15.30;99.90;;;;;;6239143;23;20007;-76
2023/05/15 07:54:51;;;;;;;22.05;19.77;;;15.40;99.90;;;;;;6239919;23;20004;-75
2023/05/15 07:57:17;;;;;;;20.65;18.58;;;15.50;99.90;;;;;;6215499;23;20413;-75
2023/05/15 07:59:43;;;;;;;20.63;18.50;;;15.60;99.90;;;;;;6242118;23;20468;-76
2023/05/15 08:02:08;;;;;;;20.42;18.42;;;15.60;99.90;;;;;;6240911;23;20430;-76
2023/05/15 08:04:34;;;;;;;21.90;19.65;;;15.70;99.90;;;;;;6239500;23;20008;-76
2023/05/15 08:06:59;;;;;;;22.40;20.13;;;15.80;99.90;;;;;;6242272;22;20004;-76
2023/05/15 08:09:25;;;;;;;19.13;17.38;;;15.90;99.90;;;;;;6241996;23;20426;-75
2023/05/15 08:11:54;;;;;;;20.65;18.67;;;16.10;99.90;;;;;;6242044;23;20426;-75
2023/05/15 08:14:19;;;;;;;21.67;19.45;;;16.10;99.90;;;;;;6239856;23;20061;-75
2023/05/15 08:16:45;;;;;;;23.98;21.77;;;16.10;99.90;;;;;;6240454;23;20004;-75
2023/05/15 08:19:10;;;;;;;21.52;17.75;;;16.10;99.90;;;;;;6239748;23;19992;-75
2023/05/15 08:21:36;;;;;;;22.73;20.45;;;16.20;99.90;;;;;;6215128;23;20011;-75
2023/05/15 08:24:02;;;;;;;25.27;22.75;;;16.10;99.90;;;;;;6242035;23;20008;-75
2023/05/15 08:26:27;;;;;;;26.77;24.05;;;16.30;99.90;;;;;;6240278;23;20375;-75
2023/05/15 08:28:53;;;;;;;33.22;28.08;;;16.30;99.90;;;;;;6241962;23;20842;-75
2023/05/15 08:31:18;;;;;;;33.03;27.85;;;16.30;99.90;;;;;;6240066;23;20104;-75
2023/05/15 08:33:44;;;;;;;34.90;29.33;;;16.40;99.90;;;;;;6213423;23;20186;-76
2023/05/15 08:36:09;;;;;;;32.35;28.88;;;16.50;99.90;;;;;;6240196;23;20004;-75
2023/05/15 08:38:35;;;;;;;30.75;27.48;;;16.60;99.90;;;;;;6241551;23;20000;-75
2023/05/15 08:41:06;;;;;;;29.02;26.02;;;16.70;99.90;;;;;;6241529;23;20000;-75
2023/05/15 08:43:35;;;;;;;30.95;27.80;;;16.90;99.90;;;;;;6241220;23;20007;-76
2023/05/15 08:46:01;;;;;;;30.10;27.10;;;17.00;99.90;;;;;;6240815;23;20455;-75
2023/05/15 08:48:28;;;;;;;29.92;27.05;;;17.20;99.90;;;;;;6239073;23;20000;-75
2023/05/15 08:50:56;;;;;;;28.52;25.63;;;17.30;99.90;;;;;;6241592;23;20008;-75
2023/05/15 08:53:23;;;;;;;29.20;26.30;;;17.30;99.90;;;;;;6242237;23;20027;-75
2023/05/15 08:55:49;;;;;;;31.92;27.10;;;17.30;99.90;;;;;;6241611;23;20020;-75
2023/05/15 08:58:15;;;;;;;29.58;26.67;;;17.30;99.90;;;;;;6239737;23;20004;-75
2023/05/15 09:00:41;;;;;;;29.40;26.42;;;17.30;99.90;;;;;;6241742;23;20478;-75
2023/05/15 09:03:14;;;;;;;25.73;23.30;;;17.40;99.90;;;;;;6241144;23;20027;-75
2023/05/15 09:05:40;;;;;;;28.13;25.40;;;17.40;99.90;;;;;;6241816;23;20007;-75
2023/05/15 09:08:07;;;;;;;27.90;25.10;;;17.50;99.90;;;;;;6241437;23;20000;-75
2023/05/15 09:10:34;;;;;;;27.08;24.40;;;17.60;99.90;;;;;;6240388;23;20008;-75
2023/05/15 09:13:01;;;;;;;28.20;25.35;;;17.60;99.90;;;;;;6241051;23;20000;-75
2023/05/15 09:15:26;;;;;;;28.00;25.10;;;17.80;99.90;;;;;;6241574;23;20003;-75
2023/05/15 09:17:53;;;;;;;26.63;24.02;;;18.00;99.90;;;;;;6240912;23;20000;-72
2023/05/15 09:20:27;;;;;;;25.70;23.42;;;18.20;99.90;;;;;;6240218;23;20406;-75
2023/05/15 09:22:54;;;;;;;25.02;22.42;;;18.40;99.90;;;;;;6241212;23;20095;-73
2023/05/15 09:25:36;;;;;;;25.65;23.05;;;18.50;99.90;;;;;;6241117;23;20098;-74
2023/05/15 09:28:02;;;;;;;28.25;25.40;;;18.60;99.90;;;;;;6241417;23;20083;-75
2023/05/15 09:30:29;;;;;;;27.15;24.58;;;18.60;99.80;;;;;;6240005;23;20046;-75
2023/05/15 09:32:58;;;;;;;27.52;24.88;;;18.70;99.20;;;;;;6240718;23;20003;-75
2023/05/15 09:35:30;;;;;;;25.70;23.10;;;18.70;98.90;;;;;;6241232;23;20011;-74
2023/05/15 09:37:59;;;;;;;27.77;25.08;;;18.80;99.00;;;;;;6241171;23;20488;-75
2023/05/15 09:40:28;;;;;;;32.53;29.05;;;18.90;98.90;;;;;;6239915;23;20004;-75
2023/05/15 09:42:53;;;;;;;33.08;29.77;;;19.00;98.90;;;;;;6240467;23;20004;-74
2023/05/15 09:45:19;;;;;;;31.98;28.88;;;19.20;98.60;;;;;;6241015;23;20039;-73
2023/05/15 09:47:46;;;;;;;31.63;28.40;;;19.10;97.80;;;;;;6240980;23;20000;-73
2023/05/15 09:50:11;;;;;;;32.55;29.42;;;19.10;97.70;;;;;;6241067;23;20071;-73
2023/05/15 09:52:38;;;;;;;27.50;24.73;;;19.20;97.50;;;;;;6239824;23;20107;-73
2023/05/15 09:55:05;;;;;;;23.80;21.67;;;19.30;97.50;;;;;;6214328;23;20442;-73
2023/05/15 09:57:30;;;;;;;22.95;20.70;;;19.40;96.10;;;;;;6213887;23;20014;-74
2023/05/15 10:00:00;;;;;;;23.17;19.40;;;19.40;95.20;;;;;;6240802;23;20380;-73
2023/05/15 10:02:31;;;;;;;17.25;14.48;;;19.30;94.00;;;;;;6211831;23;20000;-73
2023/05/15 10:04:57;;;;;;;17.08;15.52;;;19.40;93.90;;;;;;6240975;23;20004;-74
2023/05/15 10:07:27;;;;;;;24.92;22.42;;;19.50;93.20;;;;;;6213975;23;20008;-73
2023/05/15 10:09:53;;;;;;;33.80;28.95;;;19.50;93.70;;;;;;6241052;23;20127;-71
2023/05/15 10:12:19;;;;;;;33.53;30.25;;;19.50;94.40;;;;;;6213040;23;20015;-73
2023/05/15 10:14:46;;;;;;;34.88;31.15;;;19.60;94.90;;;;;;6239394;23;20018;-73
2023/05/15 10:17:13;;;;;;;27.67;24.98;;;19.70;95.20;;;;;;6240708;23;20003;-73
2023/05/15 10:19:39;;;;;;;23.63;21.33;;;19.70;94.70;;;;;;6240647;23;20057;-73
2023/05/15 10:22:06;;;;;;;22.15;19.90;;;19.60;93.50;;;;;;6241016;23;20066;-73
2023/05/15 10:24:33;;;;;;;23.40;21.10;;;19.60;92.50;;;;;;6239230;23;20497;-73
2023/05/15 10:26:58;;;;;;;29.48;26.33;;;19.60;92.70;;;;;;6240862;23;20029;-73
2023/05/15 10:29:27;;;;;;;30.33;27.38;;;19.60;93.50;;;;;;6239632;23;20386;-73
2023/05/15 10:31:53;;;;;;;33.38;30.20;;;19.60;93.90;;;;;;6240715;23;20050;-73
2023/05/15 10:34:19;;;;;;;33.80;30.17;;;19.60;94.10;;;;;;6239967;23;20031;-74
2023/05/15 10:36:45;;;;;;;34.80;31.30;;;19.70;94.30;;;;;;6240209;23;20054;-73
2023/05/15 10:39:11;;;;;;;33.75;30.20;;;19.80;94.40;;;;;;6240810;23;20011;-74
2023/05/15 10:41:38;;;;;;;29.48;26.48;;;19.60;94.60;;;;;;6240946;23;20000;-71
2023/05/15 10:44:04;;;;;;;31.80;28.58;;;19.60;94.30;;;;;;6241272;23;20070;-73
2023/05/15 10:46:33;;;;;;;31.48;28.58;;;19.60;94.70;;;;;;6240768;23;20008;-73
2023/05/15 10:49:00;;;;;;;29.98;27.13;;;19.60;95.20;;;;;;6241281;23;20000;-73
2023/05/15 10:51:32;;;;;;;32.25;29.15;;;19.60;95.30;;;;;;6239791;23;20030;-73
2023/05/15 10:54:00;;;;;;;30.75;27.83;;;19.60;94.90;;;;;;6213217;23;20386;-73
2023/05/15 10:56:29;;;;;;;28.88;26.17;;;19.60;95.10;;;;;;6240048;23;20004;-73
2023/05/15 10:58:55;;;;;;;31.98;28.98;;;19.70;95.10;;;;;;6239664;23;20372;-73
2023/05/15 11:01:28;;;;;;;31.13;27.92;;;19.70;95.00;;;;;;6240706;23;19996;-74
2023/05/15 11:04:11;;;;;;;27.75;25.08;;;19.60;95.20;;;;;;6241261;23;20017;-73
2023/05/15 11:06:39;;;;;;;29.42;26.70;;;19.70;95.10;;;;;;6213930;23;20038;-74
2023/05/15 11:09:23;;;;;;;27.25;24.65;;;19.80;95.00;;;;;;6239360;23;20041;-74
2023/05/15 11:11:59;;;;;;;;;;;19.90;94.90;;;;;;6241272;23;19996;-73
2023/05/15 11:14:26;;;;;;;27.13;24.58;;;19.90;95.00;;;;;;6239829;23;19919;-76
2023/05/15 11:16:52;;;;;;;23.75;21.33;;;20.00;94.80;;;;;;6240353;23;19997;-74
2023/05/15 11:19:22;;;;;;;16.85;15.15;;;20.00;94.00;;;;;;6238967;23;20248;-73
2023/05/15 11:21:59;;;;;;;20.42;16.25;;;20.00;93.20;;;;;;6240541;23;19996;-74
2023/05/15 11:24:45;;;;;;;15.15;13.85;;;19.90;92.40;;;;;;6240368;23;20012;-73
2023/05/15 11:27:15;;;;;;;17.35;15.63;;;19.90;91.80;;;;;;6239891;23;20031;-73
2023/05/15 11:30:10;;;;;;;16.23;14.45;;;19.90;91.30;;;;;;6239750;23;20004;-73
2023/05/15 11:32:46;;;;;;;15.27;13.88;;;19.80;91.40;;;;;;6215397;23;20099;-74
2023/05/15 11:35:24;;;;;;;20.92;18.85;;;19.80;91.60;;;;;;6242410;23;20050;-73
2023/05/15 11:37:56;;;;;;;28.30;18.58;;;19.80;91.80;;;;;;6214171;23;20004;-73
2023/05/15 11:40:31;;;;;;;21.25;19.35;;;19.90;91.80;;;;;;6240616;23;19996;-73
2023/05/15 11:43:15;;;;;;;23.15;20.90;;;20.00;91.90;;;;;;6241088;23;20329;-74
2023/05/15 11:45:41;;;;;;;23.35;21.13;;;20.00;91.90;;;;;;6241488;23;20408;-73
2023/05/15 11:48:11;;;;;;;30.60;27.48;;;20.00;92.10;;;;;;6242129;23;20083;-73
2023/05/15 11:50:37;;;;;;;32.38;28.98;;;20.00;92.70;;;;;;6215106;23;20003;-73
2023/05/15 11:53:05;;;;;;;31.33;28.23;;;20.10;93.30;;;;;;6240283;23;20003;-74
2023/05/15 11:55:32;;;;;;;34.45;31.13;;;20.00;93.70;;;;;;6215714;23;20633;-73
2023/05/15 11:57:58;;;;;;;29.95;27.02;;;20.00;94.20;;;;;;6214794;23;20129;-74
2023/05/15 12:00:24;;;;;;;25.33;23.02;;;19.90;94.40;;;;;;6242135;23;20046;-73
2023/05/15 12:02:50;;;;;;;25.17;22.67;;;19.80;94.40;;;;;;6240678;23;20368;-73
2023/05/15 12:05:15;;;;;;;24.42;21.90;;;19.80;94.00;;;;;;6242441;23;20014;-73
2023/05/15 12:07:42;;;;;;;26.40;23.90;;;19.60;93.60;;;;;;6215293;23;20051;-73
2023/05/15 12:10:11;;;;;;;25.42;23.10;;;19.50;93.70;;;;;;6242329;23;20015;-73
2023/05/15 12:12:45;;;;;;;27.70;25.20;;;19.50;93.70;;;;;;6241204;23;20000;-74
2023/05/15 12:15:15;;;;;;;28.15;25.70;;;19.50;94.00;;;;;;6213368;23;20008;-74
2023/05/15 12:17:42;;;;;;;32.55;29.25;;;19.60;94.20;;;;;;6242182;23;19993;-74
2023/05/15 12:20:15;;;;;;;36.47;32.80;;;19.60;94.30;;;;;;6242090;23;20046;-74
2023/05/15 12:22:41;;;;;;;38.72;34.72;;;19.60;94.40;;;;;;6241923;23;20042;-74
2023/05/15 12:25:10;;;;;;;35.67;32.17;;;19.50;94.40;;;;;;6239896;23;20037;-73
2023/05/15 12:27:36;;;;;;;41.50;37.10;;;19.60;94.30;;;;;;6241228;23;20000;-73
2023/05/15 12:30:03;;;;;;;39.70;35.38;;;19.60;94.20;;;;;;6241572;23;20071;-73